sensor_id;sensor_type;location;lat;lon;timestamp;P1;durP1;ratioP1;P2;durP2;ratioP2
25581;SDS011;13462;50.764;4.332;2023-07-31T00:00:14;24.90;;;8.07;;
25581;SDS011;13462;50.764;4.332;2023-07-31T00:02:39;20.80;;;6.65;;
25581;SDS011;13462;50.764;4.332;2023-07-31T00:05:05;19.33;;;8.18;;
25581;SDS011;13462;50.764;4.332;2023-07-31T00:07:33;16.52;;;7.00;;
25581;SDS011;13462;50.764;4.332;2023-07-31T00:09:58;17.52;;;6.70;;
25581;SDS011;13462;50.764;4.332;2023-07-31T00:12:24;20.33;;;7.25;;
25581;SDS011;13462;50.764;4.332;2023-07-31T00:14:49;16.58;;;6.63;;
25581;SDS011;13462;50.764;4.332;2023-07-31T00:17:16;23.65;;;7.47;;
25581;SDS011;13462;50.764;4.332;2023-07-31T00:19:43;21.88;;;7.38;;
25581;SDS011;13462;50.764;4.332;2023-07-31T00:22:10;23.30;;;7.70;;
25581;SDS011;13462;50.764;4.332;2023-07-31T00:24:36;16.63;;;6.75;;
25581;SDS011;13462;50.764;4.332;2023-07-31T00:27:02;16.23;;;7.28;;
25581;SDS011;13462;50.764;4.332;2023-07-31T00:29:28;14.45;;;6.72;;
25581;SDS011;13462;50.764;4.332;2023-07-31T00:31:53;18.75;;;7.28;;
25581;SDS011;13462;50.764;4.332;2023-07-31T00:34:19;18.15;;;7.97;;
25581;SDS011;13462;50.764;4.332;2023-07-31T00:36:44;18.52;;;7.55;;
25581;SDS011;13462;50.764;4.332;2023-07-31T00:39:10;18.17;;;6.72;;
25581;SDS011;13462;50.764;4.332;2023-07-31T00:41:35;17.13;;;6.93;;
25581;SDS011;13462;50.764;4.332;2023-07-31T00:44:01;21.20;;;7.00;;
25581;SDS011;13462;50.764;4.332;2023-07-31T00:46:26;24.23;;;6.65;;
25581;SDS011;13462;50.764;4.332;2023-07-31T00:48:52;19.00;;;6.55;;
25581;SDS011;13462;50.764;4.332;2023-07-31T00:51:18;15.55;;;6.78;;
25581;SDS011;13462;50.764;4.332;2023-07-31T00:53:43;20.70;;;6.80;;
25581;SDS011;13462;50.764;4.332;2023-07-31T00:56:09;21.27;;;7.93;;
25581;SDS011;13462;50.764;4.332;2023-07-31T00:58:36;15.82;;;7.07;;
25581;SDS011;13462;50.764;4.332;2023-07-31T01:01:02;22.92;;;7.55;;
25581;SDS011;13462;50.764;4.332;2023-07-31T01:03:27;16.50;;;7.18;;
25581;SDS011;13462;50.764;4.332;2023-07-31T01:11:25;16.65;;;7.45;;
25581;SDS011;13462;50.764;4.332;2023-07-31T01:13:55;24.88;;;8.05;;
25581;SDS011;13462;50.764;4.332;2023-07-31T01:16:22;22.70;;;8.68;;
25581;SDS011;13462;50.764;4.332;2023-07-31T01:18:47;19.60;;;7.82;;
25581;SDS011;13462;50.764;4.332;2023-07-31T01:24:03;14.90;;;7.68;;
25581;SDS011;13462;50.764;4.332;2023-07-31T01:26:36;15.43;;;8.05;;
25581;SDS011;13462;50.764;4.332;2023-07-31T01:29:08;25.95;;;9.48;;
25581;SDS011;13462;50.764;4.332;2023-07-31T01:31:40;15.40;;;7.30;;
25581;SDS011;13462;50.764;4.332;2023-07-31T01:34:11;17.70;;;7.87;;
25581;SDS011;13462;50.764;4.332;2023-07-31T01:36:38;19.42;;;8.45;;
25581;SDS011;13462;50.764;4.332;2023-07-31T01:39:04;20.90;;;8.15;;
25581;SDS011;13462;50.764;4.332;2023-07-31T01:41:29;19.05;;;7.95;;
25581;SDS011;13462;50.764;4.332;2023-07-31T01:43:55;18.83;;;8.02;;
25581;SDS011;13462;50.764;4.332;2023-07-31T01:46:21;19.27;;;7.97;;
25581;SDS011;13462;50.764;4.332;2023-07-31T01:48:46;14.93;;;8.02;;
25581;SDS011;13462;50.764;4.332;2023-07-31T01:51:12;13.93;;;7.30;;
25581;SDS011;13462;50.764;4.332;2023-07-31T01:53:37;18.08;;;8.07;;
25581;SDS011;13462;50.764;4.332;2023-07-31T01:56:04;16.45;;;7.95;;
25581;SDS011;13462;50.764;4.332;2023-07-31T01:58:29;16.10;;;7.30;;
25581;SDS011;13462;50.764;4.332;2023-07-31T02:00:55;17.90;;;8.75;;
25581;SDS011;13462;50.764;4.332;2023-07-31T02:03:20;16.80;;;8.00;;
25581;SDS011;13462;50.764;4.332;2023-07-31T02:05:47;18.27;;;8.27;;
25581;SDS011;13462;50.764;4.332;2023-07-31T02:08:14;15.57;;;8.15;;
25581;SDS011;13462;50.764;4.332;2023-07-31T02:10:40;13.45;;;7.88;;
25581;SDS011;13462;50.764;4.332;2023-07-31T02:13:05;16.35;;;7.57;;
25581;SDS011;13462;50.764;4.332;2023-07-31T02:15:31;14.45;;;7.63;;
25581;SDS011;13462;50.764;4.332;2023-07-31T02:17:58;18.52;;;7.60;;
25581;SDS011;13462;50.764;4.332;2023-07-31T02:20:24;15.43;;;8.65;;
25581;SDS011;13462;50.764;4.332;2023-07-31T02:22:49;15.63;;;7.55;;
25581;SDS011;13462;50.764;4.332;2023-07-31T02:25:15;14.15;;;7.07;;
25581;SDS011;13462;50.764;4.332;2023-07-31T02:27:41;15.10;;;7.43;;
25581;SDS011;13462;50.764;4.332;2023-07-31T02:30:07;14.88;;;8.05;;
25581;SDS011;13462;50.764;4.332;2023-07-31T02:32:33;17.38;;;7.65;;
25581;SDS011;13462;50.764;4.332;2023-07-31T02:34:58;10.63;;;6.55;;
25581;SDS011;13462;50.764;4.332;2023-07-31T02:37:24;14.10;;;7.15;;
25581;SDS011;13462;50.764;4.332;2023-07-31T02:39:50;13.43;;;7.80;;
25581;SDS011;13462;50.764;4.332;2023-07-31T02:42:16;13.45;;;6.65;;
25581;SDS011;13462;50.764;4.332;2023-07-31T02:44:41;13.48;;;7.15;;
25581;SDS011;13462;50.764;4.332;2023-07-31T02:47:07;10.15;;;6.65;;
25581;SDS011;13462;50.764;4.332;2023-07-31T02:49:33;14.57;;;6.88;;
25581;SDS011;13462;50.764;4.332;2023-07-31T02:51:58;10.90;;;6.57;;
25581;SDS011;13462;50.764;4.332;2023-07-31T02:54:24;11.55;;;5.97;;
25581;SDS011;13462;50.764;4.332;2023-07-31T02:56:49;15.05;;;6.38;;
25581;SDS011;13462;50.764;4.332;2023-07-31T02:59:15;15.25;;;6.82;;
25581;SDS011;13462;50.764;4.332;2023-07-31T03:01:41;10.93;;;5.88;;
25581;SDS011;13462;50.764;4.332;2023-07-31T03:04:07;13.75;;;6.97;;
25581;SDS011;13462;50.764;4.332;2023-07-31T03:06:32;13.80;;;6.50;;
25581;SDS011;13462;50.764;4.332;2023-07-31T03:08:58;12.98;;;6.97;;
25581;SDS011;13462;50.764;4.332;2023-07-31T03:11:23;11.13;;;6.35;;
25581;SDS011;13462;50.764;4.332;2023-07-31T03:13:49;12.18;;;6.15;;
25581;SDS011;13462;50.764;4.332;2023-07-31T03:16:14;21.88;;;7.25;;
25581;SDS011;13462;50.764;4.332;2023-07-31T03:18:40;14.00;;;6.85;;
25581;SDS011;13462;50.764;4.332;2023-07-31T03:21:06;11.23;;;5.93;;
25581;SDS011;13462;50.764;4.332;2023-07-31T03:23:31;13.15;;;6.18;;
25581;SDS011;13462;50.764;4.332;2023-07-31T03:25:57;11.27;;;5.63;;
25581;SDS011;13462;50.764;4.332;2023-07-31T03:28:24;11.73;;;6.15;;
25581;SDS011;13462;50.764;4.332;2023-07-31T03:30:50;16.10;;;6.05;;
25581;SDS011;13462;50.764;4.332;2023-07-31T03:33:17;9.52;;;6.05;;
25581;SDS011;13462;50.764;4.332;2023-07-31T03:35:42;9.45;;;5.97;;
25581;SDS011;13462;50.764;4.332;2023-07-31T03:38:08;11.18;;;6.95;;
25581;SDS011;13462;50.764;4.332;2023-07-31T03:40:33;10.40;;;6.13;;
25581;SDS011;13462;50.764;4.332;2023-07-31T03:42:59;11.55;;;6.70;;
25581;SDS011;13462;50.764;4.332;2023-07-31T03:45:24;11.45;;;6.80;;
25581;SDS011;13462;50.764;4.332;2023-07-31T03:47:50;13.27;;;6.45;;
25581;SDS011;13462;50.764;4.332;2023-07-31T03:50:16;10.00;;;6.07;;
25581;SDS011;13462;50.764;4.332;2023-07-31T03:52:41;16.25;;;6.55;;
25581;SDS011;13462;50.764;4.332;2023-07-31T03:55:07;11.38;;;6.90;;
25581;SDS011;13462;50.764;4.332;2023-07-31T03:57:32;12.13;;;6.65;;
25581;SDS011;13462;50.764;4.332;2023-07-31T03:59:58;11.80;;;6.60;;
25581;SDS011;13462;50.764;4.332;2023-07-31T04:02:24;16.33;;;6.50;;
25581;SDS011;13462;50.764;4.332;2023-07-31T04:04:50;13.05;;;6.32;;
25581;SDS011;13462;50.764;4.332;2023-07-31T04:07:15;10.55;;;6.63;;
25581;SDS011;13462;50.764;4.332;2023-07-31T04:09:41;11.02;;;7.25;;
25581;SDS011;13462;50.764;4.332;2023-07-31T04:12:06;11.63;;;6.45;;
25581;SDS011;13462;50.764;4.332;2023-07-31T04:14:32;16.65;;;6.63;;
25581;SDS011;13462;50.764;4.332;2023-07-31T04:16:58;13.75;;;5.85;;
25581;SDS011;13462;50.764;4.332;2023-07-31T04:19:24;12.80;;;6.43;;
25581;SDS011;13462;50.764;4.332;2023-07-31T04:21:49;12.77;;;6.68;;
25581;SDS011;13462;50.764;4.332;2023-07-31T04:24:15;11.82;;;6.72;;
25581;SDS011;13462;50.764;4.332;2023-07-31T04:26:40;14.52;;;6.72;;
25581;SDS011;13462;50.764;4.332;2023-07-31T04:29:06;13.15;;;6.35;;
25581;SDS011;13462;50.764;4.332;2023-07-31T04:31:33;12.95;;;6.15;;
25581;SDS011;13462;50.764;4.332;2023-07-31T04:33:58;10.50;;;6.00;;
25581;SDS011;13462;50.764;4.332;2023-07-31T04:36:24;11.85;;;6.60;;
25581;SDS011;13462;50.764;4.332;2023-07-31T04:38:50;14.23;;;6.45;;
25581;SDS011;13462;50.764;4.332;2023-07-31T04:41:15;9.75;;;5.90;;
25581;SDS011;13462;50.764;4.332;2023-07-31T04:43:41;15.52;;;5.93;;
25581;SDS011;13462;50.764;4.332;2023-07-31T04:46:06;9.48;;;6.25;;
25581;SDS011;13462;50.764;4.332;2023-07-31T04:48:32;12.30;;;6.15;;
25581;SDS011;13462;50.764;4.332;2023-07-31T04:50:58;9.65;;;5.70;;
25581;SDS011;13462;50.764;4.332;2023-07-31T04:53:23;12.60;;;5.90;;
25581;SDS011;13462;50.764;4.332;2023-07-31T04:55:49;13.68;;;6.35;;
25581;SDS011;13462;50.764;4.332;2023-07-31T04:58:14;12.93;;;6.28;;
25581;SDS011;13462;50.764;4.332;2023-07-31T05:00:40;13.30;;;6.22;;
25581;SDS011;13462;50.764;4.332;2023-07-31T05:03:05;16.65;;;6.65;;
25581;SDS011;13462;50.764;4.332;2023-07-31T05:05:32;12.27;;;5.88;;
25581;SDS011;13462;50.764;4.332;2023-07-31T05:07:57;12.13;;;6.55;;
25581;SDS011;13462;50.764;4.332;2023-07-31T05:10:23;12.82;;;6.57;;
25581;SDS011;13462;50.764;4.332;2023-07-31T05:12:49;15.82;;;8.10;;
25581;SDS011;13462;50.764;4.332;2023-07-31T05:15:14;10.80;;;6.00;;
25581;SDS011;13462;50.764;4.332;2023-07-31T05:17:40;9.95;;;6.05;;
25581;SDS011;13462;50.764;4.332;2023-07-31T05:20:06;12.63;;;6.72;;
25581;SDS011;13462;50.764;4.332;2023-07-31T05:22:32;20.25;;;7.57;;
25581;SDS011;13462;50.764;4.332;2023-07-31T05:24:57;12.50;;;6.65;;
25581;SDS011;13462;50.764;4.332;2023-07-31T05:27:23;14.90;;;6.82;;
25581;SDS011;13462;50.764;4.332;2023-07-31T05:29:49;13.15;;;6.22;;
25581;SDS011;13462;50.764;4.332;2023-07-31T05:32:14;13.02;;;6.20;;
25581;SDS011;13462;50.764;4.332;2023-07-31T05:34:40;20.13;;;7.40;;
25581;SDS011;13462;50.764;4.332;2023-07-31T05:37:05;14.23;;;6.90;;
25581;SDS011;13462;50.764;4.332;2023-07-31T05:39:31;15.48;;;7.10;;
25581;SDS011;13462;50.764;4.332;2023-07-31T05:41:57;16.33;;;6.85;;
25581;SDS011;13462;50.764;4.332;2023-07-31T05:44:22;12.95;;;7.55;;
25581;SDS011;13462;50.764;4.332;2023-07-31T05:46:48;17.63;;;7.40;;
25581;SDS011;13462;50.764;4.332;2023-07-31T05:49:13;13.55;;;7.53;;
25581;SDS011;13462;50.764;4.332;2023-07-31T05:51:39;13.57;;;7.97;;
25581;SDS011;13462;50.764;4.332;2023-07-31T05:54:04;21.98;;;7.93;;
25581;SDS011;13462;50.764;4.332;2023-07-31T05:56:30;16.70;;;7.20;;
25581;SDS011;13462;50.764;4.332;2023-07-31T05:58:56;11.98;;;6.80;;
25581;SDS011;13462;50.764;4.332;2023-07-31T06:01:22;11.98;;;6.88;;
25581;SDS011;13462;50.764;4.332;2023-07-31T06:03:47;17.73;;;7.85;;
25581;SDS011;13462;50.764;4.332;2023-07-31T06:06:13;14.57;;;7.60;;
25581;SDS011;13462;50.764;4.332;2023-07-31T06:08:39;15.95;;;7.88;;
25581;SDS011;13462;50.764;4.332;2023-07-31T06:11:05;21.98;;;8.38;;
25581;SDS011;13462;50.764;4.332;2023-07-31T06:13:31;13.75;;;6.30;;
25581;SDS011;13462;50.764;4.332;2023-07-31T06:15:56;13.57;;;6.78;;
25581;SDS011;13462;50.764;4.332;2023-07-31T06:18:24;13.60;;;6.80;;
25581;SDS011;13462;50.764;4.332;2023-07-31T06:20:49;13.68;;;6.45;;
25581;SDS011;13462;50.764;4.332;2023-07-31T06:23:18;14.80;;;7.00;;
25581;SDS011;13462;50.764;4.332;2023-07-31T06:25:44;15.77;;;6.43;;
25581;SDS011;13462;50.764;4.332;2023-07-31T06:28:10;13.50;;;7.10;;
25581;SDS011;13462;50.764;4.332;2023-07-31T06:30:35;17.48;;;6.18;;
25581;SDS011;13462;50.764;4.332;2023-07-31T06:33:01;13.95;;;5.70;;
25581;SDS011;13462;50.764;4.332;2023-07-31T06:35:27;18.70;;;6.57;;
25581;SDS011;13462;50.764;4.332;2023-07-31T06:37:52;13.32;;;6.03;;
25581;SDS011;13462;50.764;4.332;2023-07-31T06:40:18;13.23;;;7.18;;
25581;SDS011;13462;50.764;4.332;2023-07-31T06:42:44;8.90;;;6.28;;
25581;SDS011;13462;50.764;4.332;2023-07-31T06:45:10;10.80;;;6.03;;
25581;SDS011;13462;50.764;4.332;2023-07-31T06:47:36;12.57;;;6.45;;
25581;SDS011;13462;50.764;4.332;2023-07-31T06:50:01;18.92;;;6.50;;
25581;SDS011;13462;50.764;4.332;2023-07-31T06:52:27;10.25;;;5.80;;
25581;SDS011;13462;50.764;4.332;2023-07-31T06:57:28;9.40;;;5.53;;
25581;SDS011;13462;50.764;4.332;2023-07-31T06:59:54;14.15;;;6.35;;
25581;SDS011;13462;50.764;4.332;2023-07-31T07:02:20;8.98;;;5.35;;
25581;SDS011;13462;50.764;4.332;2023-07-31T07:04:45;8.80;;;5.13;;
25581;SDS011;13462;50.764;4.332;2023-07-31T07:07:11;10.23;;;5.20;;
25581;SDS011;13462;50.764;4.332;2023-07-31T07:09:36;10.32;;;5.22;;
25581;SDS011;13462;50.764;4.332;2023-07-31T07:12:02;16.27;;;5.93;;
25581;SDS011;13462;50.764;4.332;2023-07-31T07:14:28;10.10;;;5.20;;
25581;SDS011;13462;50.764;4.332;2023-07-31T07:16:53;13.27;;;5.20;;
25581;SDS011;13462;50.764;4.332;2023-07-31T07:19:19;9.80;;;4.70;;
25581;SDS011;13462;50.764;4.332;2023-07-31T07:21:44;10.90;;;5.70;;
25581;SDS011;13462;50.764;4.332;2023-07-31T07:24:10;12.75;;;5.05;;
25581;SDS011;13462;50.764;4.332;2023-07-31T07:26:35;11.95;;;4.90;;
25581;SDS011;13462;50.764;4.332;2023-07-31T07:29:01;11.20;;;5.85;;
25581;SDS011;13462;50.764;4.332;2023-07-31T07:31:27;9.40;;;4.50;;
25581;SDS011;13462;50.764;4.332;2023-07-31T07:33:53;12.82;;;5.00;;
25581;SDS011;13462;50.764;4.332;2023-07-31T07:36:19;11.48;;;5.18;;
25581;SDS011;13462;50.764;4.332;2023-07-31T07:38:44;10.52;;;4.75;;
25581;SDS011;13462;50.764;4.332;2023-07-31T07:41:10;9.07;;;4.78;;
25581;SDS011;13462;50.764;4.332;2023-07-31T07:43:36;9.55;;;4.38;;
25581;SDS011;13462;50.764;4.332;2023-07-31T07:46:01;14.38;;;5.05;;
25581;SDS011;13462;50.764;4.332;2023-07-31T07:48:27;11.07;;;5.38;;
25581;SDS011;13462;50.764;4.332;2023-07-31T07:50:52;11.25;;;4.60;;
25581;SDS011;13462;50.764;4.332;2023-07-31T07:53:18;10.43;;;4.57;;
25581;SDS011;13462;50.764;4.332;2023-07-31T07:55:43;10.68;;;5.30;;
25581;SDS011;13462;50.764;4.332;2023-07-31T07:58:09;8.15;;;4.65;;
25581;SDS011;13462;50.764;4.332;2023-07-31T08:00:34;8.68;;;4.78;;
25581;SDS011;13462;50.764;4.332;2023-07-31T08:03:00;11.13;;;5.22;;
25581;SDS011;13462;50.764;4.332;2023-07-31T08:05:26;10.07;;;4.78;;
25581;SDS011;13462;50.764;4.332;2023-07-31T08:07:51;11.77;;;4.78;;
25581;SDS011;13462;50.764;4.332;2023-07-31T08:10:17;8.40;;;4.47;;
25581;SDS011;13462;50.764;4.332;2023-07-31T08:12:42;10.30;;;4.68;;
25581;SDS011;13462;50.764;4.332;2023-07-31T08:15:08;13.27;;;4.93;;
25581;SDS011;13462;50.764;4.332;2023-07-31T08:17:34;7.13;;;4.30;;
25581;SDS011;13462;50.764;4.332;2023-07-31T08:19:59;7.78;;;3.78;;
25581;SDS011;13462;50.764;4.332;2023-07-31T08:22:25;10.05;;;4.68;;
25581;SDS011;13462;50.764;4.332;2023-07-31T08:24:51;11.30;;;5.15;;
25581;SDS011;13462;50.764;4.332;2023-07-31T08:27:16;11.27;;;4.88;;
25581;SDS011;13462;50.764;4.332;2023-07-31T08:29:42;8.27;;;5.10;;
25581;SDS011;13462;50.764;4.332;2023-07-31T08:32:07;14.68;;;5.35;;
25581;SDS011;13462;50.764;4.332;2023-07-31T08:34:33;10.05;;;4.90;;
25581;SDS011;13462;50.764;4.332;2023-07-31T08:36:58;8.88;;;4.72;;
25581;SDS011;13462;50.764;4.332;2023-07-31T08:39:24;10.25;;;4.72;;
25581;SDS011;13462;50.764;4.332;2023-07-31T08:41:49;9.50;;;5.45;;
25581;SDS011;13462;50.764;4.332;2023-07-31T08:44:15;12.95;;;4.75;;
25581;SDS011;13462;50.764;4.332;2023-07-31T08:46:42;9.40;;;5.30;;
25581;SDS011;13462;50.764;4.332;2023-07-31T08:49:08;12.52;;;5.28;;
25581;SDS011;13462;50.764;4.332;2023-07-31T08:51:35;10.68;;;4.65;;
25581;SDS011;13462;50.764;4.332;2023-07-31T08:54:02;9.38;;;5.18;;
25581;SDS011;13462;50.764;4.332;2023-07-31T08:56:31;14.57;;;5.57;;
25581;SDS011;13462;50.764;4.332;2023-07-31T08:58:57;10.50;;;4.60;;
25581;SDS011;13462;50.764;4.332;2023-07-31T09:01:27;9.52;;;5.20;;
25581;SDS011;13462;50.764;4.332;2023-07-31T09:03:54;6.32;;;4.47;;
25581;SDS011;13462;50.764;4.332;2023-07-31T09:06:21;10.35;;;5.43;;
25581;SDS011;13462;50.764;4.332;2023-07-31T09:08:49;13.95;;;5.45;;
25581;SDS011;13462;50.764;4.332;2023-07-31T09:11:15;9.95;;;4.85;;
25581;SDS011;13462;50.764;4.332;2023-07-31T09:13:41;10.27;;;5.18;;
25581;SDS011;13462;50.764;4.332;2023-07-31T09:16:08;8.55;;;4.90;;
25581;SDS011;13462;50.764;4.332;2023-07-31T09:18:56;16.08;;;5.40;;
25581;SDS011;13462;50.764;4.332;2023-07-31T09:21:22;9.27;;;5.63;;
25581;SDS011;13462;50.764;4.332;2023-07-31T09:23:49;9.02;;;4.95;;
25581;SDS011;13462;50.764;4.332;2023-07-31T09:26:34;8.93;;;5.18;;
25581;SDS011;13462;50.764;4.332;2023-07-31T09:29:01;14.80;;;6.13;;
25581;SDS011;13462;50.764;4.332;2023-07-31T09:31:39;8.77;;;5.25;;
25581;SDS011;13462;50.764;4.332;2023-07-31T09:34:06;10.95;;;5.72;;
25581;SDS011;13462;50.764;4.332;2023-07-31T09:36:32;14.57;;;5.57;;
25581;SDS011;13462;50.764;4.332;2023-07-31T09:39:03;11.15;;;5.32;;
25581;SDS011;13462;50.764;4.332;2023-07-31T09:41:30;14.95;;;7.38;;
25581;SDS011;13462;50.764;4.332;2023-07-31T09:43:56;16.70;;;6.50;;
25581;SDS011;13462;50.764;4.332;2023-07-31T09:46:21;16.20;;;6.95;;
25581;SDS011;13462;50.764;4.332;2023-07-31T09:48:47;19.98;;;7.78;;
25581;SDS011;13462;50.764;4.332;2023-07-31T09:51:13;14.52;;;6.95;;
25581;SDS011;13462;50.764;4.332;2023-07-31T09:53:38;13.75;;;6.88;;
25581;SDS011;13462;50.764;4.332;2023-07-31T09:56:04;13.85;;;7.13;;
25581;SDS011;13462;50.764;4.332;2023-07-31T09:58:30;9.68;;;6.43;;
25581;SDS011;13462;50.764;4.332;2023-07-31T10:01:00;14.32;;;6.82;;
25581;SDS011;13462;50.764;4.332;2023-07-31T10:03:27;14.05;;;6.78;;
25581;SDS011;13462;50.764;4.332;2023-07-31T10:05:55;14.48;;;6.80;;
25581;SDS011;13462;50.764;4.332;2023-07-31T10:08:22;14.52;;;6.93;;
25581;SDS011;13462;50.764;4.332;2023-07-31T10:10:55;14.20;;;6.93;;
25581;SDS011;13462;50.764;4.332;2023-07-31T10:13:24;10.90;;;6.75;;
25581;SDS011;13462;50.764;4.332;2023-07-31T10:15:52;13.98;;;7.40;;
25581;SDS011;13462;50.764;4.332;2023-07-31T10:18:19;16.17;;;7.18;;
25581;SDS011;13462;50.764;4.332;2023-07-31T10:20:45;13.38;;;6.60;;
25581;SDS011;13462;50.764;4.332;2023-07-31T10:23:12;12.82;;;6.93;;
25581;SDS011;13462;50.764;4.332;2023-07-31T10:25:38;17.05;;;7.65;;
25581;SDS011;13462;50.764;4.332;2023-07-31T10:28:04;15.18;;;7.82;;
25581;SDS011;13462;50.764;4.332;2023-07-31T10:30:31;14.82;;;8.30;;
25581;SDS011;13462;50.764;4.332;2023-07-31T10:32:58;11.65;;;6.63;;
25581;SDS011;13462;50.764;4.332;2023-07-31T10:35:25;14.88;;;6.55;;
25581;SDS011;13462;50.764;4.332;2023-07-31T10:37:50;12.57;;;6.43;;
25581;SDS011;13462;50.764;4.332;2023-07-31T10:40:26;14.88;;;7.07;;
25581;SDS011;13462;50.764;4.332;2023-07-31T10:45:35;14.30;;;7.20;;
25581;SDS011;13462;50.764;4.332;2023-07-31T10:50:29;15.13;;;6.90;;
25581;SDS011;13462;50.764;4.332;2023-07-31T10:52:57;20.52;;;8.05;;
25581;SDS011;13462;50.764;4.332;2023-07-31T10:55:31;12.90;;;6.60;;
25581;SDS011;13462;50.764;4.332;2023-07-31T10:58:05;15.70;;;6.93;;
25581;SDS011;13462;50.764;4.332;2023-07-31T11:00:42;13.90;;;7.20;;
25581;SDS011;13462;50.764;4.332;2023-07-31T11:03:10;15.45;;;7.22;;
25581;SDS011;13462;50.764;4.332;2023-07-31T11:11:04;13.30;;;6.13;;
25581;SDS011;13462;50.764;4.332;2023-07-31T11:13:32;13.57;;;6.95;;
25581;SDS011;13462;50.764;4.332;2023-07-31T11:15:59;13.60;;;6.95;;
25581;SDS011;13462;50.764;4.332;2023-07-31T11:18:26;11.85;;;6.50;;
25581;SDS011;13462;50.764;4.332;2023-07-31T11:20:52;10.55;;;6.65;;
25581;SDS011;13462;50.764;4.332;2023-07-31T11:23:18;14.15;;;6.80;;
25581;SDS011;13462;50.764;4.332;2023-07-31T11:25:45;14.38;;;6.63;;
25581;SDS011;13462;50.764;4.332;2023-07-31T11:28:11;11.82;;;5.95;;
25581;SDS011;13462;50.764;4.332;2023-07-31T11:30:39;10.38;;;6.43;;
25581;SDS011;13462;50.764;4.332;2023-07-31T11:33:08;13.27;;;6.43;;
25581;SDS011;13462;50.764;4.332;2023-07-31T11:35:40;12.48;;;6.72;;
25581;SDS011;13462;50.764;4.332;2023-07-31T11:38:11;19.77;;;6.15;;
25581;SDS011;13462;50.764;4.332;2023-07-31T11:40:41;12.15;;;6.60;;
25581;SDS011;13462;50.764;4.332;2023-07-31T11:43:07;17.45;;;6.85;;
25581;SDS011;13462;50.764;4.332;2023-07-31T11:45:33;14.43;;;5.88;;
25581;SDS011;13462;50.764;4.332;2023-07-31T11:48:00;11.45;;;6.38;;
25581;SDS011;13462;50.764;4.332;2023-07-31T11:50:26;12.82;;;6.70;;
25581;SDS011;13462;50.764;4.332;2023-07-31T11:52:59;9.73;;;5.38;;
25581;SDS011;13462;50.764;4.332;2023-07-31T11:55:27;13.00;;;6.82;;
25581;SDS011;13462;50.764;4.332;2023-07-31T11:57:55;14.68;;;6.05;;
25581;SDS011;13462;50.764;4.332;2023-07-31T12:00:22;10.30;;;6.30;;
25581;SDS011;13462;50.764;4.332;2023-07-31T12:02:49;11.25;;;6.22;;
25581;SDS011;13462;50.764;4.332;2023-07-31T12:05:16;11.38;;;5.82;;
25581;SDS011;13462;50.764;4.332;2023-07-31T12:07:43;17.50;;;5.55;;
25581;SDS011;13462;50.764;4.332;2023-07-31T12:10:22;14.85;;;6.93;;
25581;SDS011;13462;50.764;4.332;2023-07-31T12:13:02;14.43;;;7.30;;
25581;SDS011;13462;50.764;4.332;2023-07-31T12:18:00;12.35;;;6.18;;
25581;SDS011;13462;50.764;4.332;2023-07-31T12:20:29;11.38;;;5.93;;
25581;SDS011;13462;50.764;4.332;2023-07-31T12:22:56;14.75;;;6.78;;
25581;SDS011;13462;50.764;4.332;2023-07-31T12:25:23;14.00;;;6.25;;
25581;SDS011;13462;50.764;4.332;2023-07-31T12:27:53;13.07;;;5.43;;
25581;SDS011;13462;50.764;4.332;2023-07-31T12:30:29;9.85;;;6.25;;
25581;SDS011;13462;50.764;4.332;2023-07-31T12:33:06;16.92;;;7.03;;
25581;SDS011;13462;50.764;4.332;2023-07-31T12:35:37;14.15;;;6.45;;
25581;SDS011;13462;50.764;4.332;2023-07-31T12:38:05;11.27;;;6.32;;
25581;SDS011;13462;50.764;4.332;2023-07-31T12:40:31;11.88;;;6.38;;
25581;SDS011;13462;50.764;4.332;2023-07-31T12:42:56;8.85;;;5.95;;
25581;SDS011;13462;50.764;4.332;2023-07-31T12:45:22;11.32;;;6.45;;
25581;SDS011;13462;50.764;4.332;2023-07-31T12:47:48;15.10;;;5.93;;
25581;SDS011;13462;50.764;4.332;2023-07-31T12:50:14;11.85;;;6.60;;
25581;SDS011;13462;50.764;4.332;2023-07-31T12:52:39;12.15;;;6.43;;
25581;SDS011;13462;50.764;4.332;2023-07-31T12:55:05;17.50;;;7.20;;
25581;SDS011;13462;50.764;4.332;2023-07-31T12:57:35;10.27;;;6.53;;
25581;SDS011;13462;50.764;4.332;2023-07-31T13:00:01;12.27;;;6.00;;
25581;SDS011;13462;50.764;4.332;2023-07-31T13:02:27;20.27;;;7.43;;
25581;SDS011;13462;50.764;4.332;2023-07-31T13:04:53;14.18;;;7.40;;
25581;SDS011;13462;50.764;4.332;2023-07-31T13:07:19;14.75;;;7.35;;
25581;SDS011;13462;50.764;4.332;2023-07-31T13:09:45;15.80;;;6.35;;
25581;SDS011;13462;50.764;4.332;2023-07-31T13:12:13;15.55;;;6.10;;
25581;SDS011;13462;50.764;4.332;2023-07-31T13:14:39;10.27;;;6.07;;
25581;SDS011;13462;50.764;4.332;2023-07-31T13:17:04;11.02;;;5.72;;
25581;SDS011;13462;50.764;4.332;2023-07-31T13:19:30;12.27;;;6.20;;
25581;SDS011;13462;50.764;4.332;2023-07-31T13:21:56;12.77;;;6.05;;
25581;SDS011;13462;50.764;4.332;2023-07-31T13:24:21;11.60;;;5.70;;
25581;SDS011;13462;50.764;4.332;2023-07-31T13:26:47;13.05;;;5.93;;
25581;SDS011;13462;50.764;4.332;2023-07-31T13:29:12;16.10;;;6.80;;
25581;SDS011;13462;50.764;4.332;2023-07-31T13:31:38;12.68;;;6.28;;
25581;SDS011;13462;50.764;4.332;2023-07-31T13:34:03;12.50;;;5.75;;
25581;SDS011;13462;50.764;4.332;2023-07-31T13:36:29;12.05;;;6.25;;
25581;SDS011;13462;50.764;4.332;2023-07-31T13:38:55;11.40;;;5.80;;
25581;SDS011;13462;50.764;4.332;2023-07-31T13:41:20;11.32;;;6.80;;
25581;SDS011;13462;50.764;4.332;2023-07-31T13:43:46;10.90;;;6.25;;
25581;SDS011;13462;50.764;4.332;2023-07-31T13:46:11;11.20;;;6.70;;
25581;SDS011;13462;50.764;4.332;2023-07-31T13:48:37;10.02;;;6.55;;
25581;SDS011;13462;50.764;4.332;2023-07-31T13:51:03;17.52;;;7.00;;
25581;SDS011;13462;50.764;4.332;2023-07-31T13:53:28;12.05;;;6.60;;
25581;SDS011;13462;50.764;4.332;2023-07-31T13:55:54;11.45;;;6.70;;
25581;SDS011;13462;50.764;4.332;2023-07-31T13:58:20;12.40;;;6.65;;
25581;SDS011;13462;50.764;4.332;2023-07-31T14:00:46;8.63;;;5.60;;
25581;SDS011;13462;50.764;4.332;2023-07-31T14:03:11;10.27;;;6.55;;
25581;SDS011;13462;50.764;4.332;2023-07-31T14:05:37;9.65;;;6.40;;
25581;SDS011;13462;50.764;4.332;2023-07-31T14:08:03;11.05;;;5.85;;
25581;SDS011;13462;50.764;4.332;2023-07-31T14:10:28;13.80;;;6.72;;
25581;SDS011;13462;50.764;4.332;2023-07-31T14:12:54;12.68;;;5.50;;
25581;SDS011;13462;50.764;4.332;2023-07-31T14:15:19;10.18;;;6.70;;
25581;SDS011;13462;50.764;4.332;2023-07-31T14:17:45;12.93;;;5.85;;
25581;SDS011;13462;50.764;4.332;2023-07-31T14:20:11;12.55;;;5.47;;
25581;SDS011;13462;50.764;4.332;2023-07-31T14:22:37;9.45;;;5.60;;
25581;SDS011;13462;50.764;4.332;2023-07-31T14:25:03;7.72;;;5.18;;
25581;SDS011;13462;50.764;4.332;2023-07-31T14:27:28;10.38;;;5.20;;
25581;SDS011;13462;50.764;4.332;2023-07-31T14:29:54;9.68;;;4.93;;
25581;SDS011;13462;50.764;4.332;2023-07-31T14:32:20;9.13;;;5.13;;
25581;SDS011;13462;50.764;4.332;2023-07-31T14:34:48;5.55;;;4.30;;
25581;SDS011;13462;50.764;4.332;2023-07-31T14:37:14;13.45;;;5.63;;
25581;SDS011;13462;50.764;4.332;2023-07-31T14:39:39;8.82;;;5.35;;
25581;SDS011;13462;50.764;4.332;2023-07-31T14:42:05;7.35;;;4.15;;
25581;SDS011;13462;50.764;4.332;2023-07-31T14:44:30;10.35;;;4.47;;
25581;SDS011;13462;50.764;4.332;2023-07-31T14:46:56;7.95;;;3.85;;
25581;SDS011;13462;50.764;4.332;2023-07-31T14:49:22;7.15;;;3.95;;
25581;SDS011;13462;50.764;4.332;2023-07-31T14:51:48;7.00;;;3.92;;
25581;SDS011;13462;50.764;4.332;2023-07-31T14:54:14;7.35;;;4.13;;